sensor_id;sensor_type;location;lat;lon;timestamp;temperature;humidity
52103;DHT22;38101;53.126;6.878;2023-05-10T00:00:39;15.20;99.90
52103;DHT22;38101;53.126;6.878;2023-05-10T00:03:05;15.20;99.90
52103;DHT22;38101;53.126;6.878;2023-05-10T00:05:31;15.20;99.90
52103;DHT22;38101;53.126;6.878;2023-05-10T00:07:57;15.20;99.90
52103;DHT22;38101;53.126;6.878;2023-05-10T00:10:23;15.20;99.90
52103;DHT22;38101;53.126;6.878;2023-05-10T00:12:48;15.10;99.90
52103;DHT22;38101;53.126;6.878;2023-05-10T00:15:14;15.10;99.90
52103;DHT22;38101;53.126;6.878;2023-05-10T00:17:40;15.10;99.90
52103;DHT22;38101;53.126;6.878;2023-05-10T00:20:06;15.00;99.90
52103;DHT22;38101;53.126;6.878;2023-05-10T00:22:32;15.00;99.90
52103;DHT22;38101;53.126;6.878;2023-05-10T00:24:58;14.90;99.90
52103;DHT22;38101;53.126;6.878;2023-05-10T00:27:24;14.90;99.90
52103;DHT22;38101;53.126;6.878;2023-05-10T00:29:49;14.80;99.90
52103;DHT22;38101;53.126;6.878;2023-05-10T00:32:15;14.80;99.90
52103;DHT22;38101;53.126;6.878;2023-05-10T00:34:41;14.70;99.90
52103;DHT22;38101;53.126;6.878;2023-05-10T00:37:07;14.70;99.90
52103;DHT22;38101;53.126;6.878;2023-05-10T00:39:33;14.60;99.90
52103;DHT22;38101;53.126;6.878;2023-05-10T00:41:58;14.60;99.90
52103;DHT22;38101;53.126;6.878;2023-05-10T00:44:25;14.60;99.90
52103;DHT22;38101;53.126;6.878;2023-05-10T00:46:51;14.50;99.90
52103;DHT22;38101;53.126;6.878;2023-05-10T00:49:17;14.50;99.90
52103;DHT22;38101;53.126;6.878;2023-05-10T00:51:44;14.40;99.90
52103;DHT22;38101;53.126;6.878;2023-05-10T00:54:11;14.40;99.90
52103;DHT22;38101;53.126;6.878;2023-05-10T00:56:39;14.40;99.90
52103;DHT22;38101;53.126;6.878;2023-05-10T00:59:05;14.30;99.90
52103;DHT22;38101;53.126;6.878;2023-05-10T01:01:32;14.30;99.90
52103;DHT22;38101;53.126;6.878;2023-05-10T01:03:58;14.30;99.90
52103;DHT22;38101;53.126;6.878;2023-05-10T01:06:23;14.30;99.90
52103;DHT22;38101;53.126;6.878;2023-05-10T01:08:49;14.30;99.90
52103;DHT22;38101;53.126;6.878;2023-05-10T01:11:15;14.20;99.90
52103;DHT22;38101;53.126;6.878;2023-05-10T01:13:42;14.30;99.90
52103;DHT22;38101;53.126;6.878;2023-05-10T01:16:08;14.30;99.90
52103;DHT22;38101;53.126;6.878;2023-05-10T01:18:39;14.30;99.90
52103;DHT22;38101;53.126;6.878;2023-05-10T01:29:58;14.30;99.90
52103;DHT22;38101;53.126;6.878;2023-05-10T01:37:59;14.30;99.90
52103;DHT22;38101;53.126;6.878;2023-05-10T01:40:42;14.30;99.90
52103;DHT22;38101;53.126;6.878;2023-05-10T01:43:19;14.30;99.90
52103;DHT22;38101;53.126;6.878;2023-05-10T01:45:50;14.30;99.90
52103;DHT22;38101;53.126;6.878;2023-05-10T01:48:18;14.30;99.90
52103;DHT22;38101;53.126;6.878;2023-05-10T01:50:46;14.20;99.90
52103;DHT22;38101;53.126;6.878;2023-05-10T01:53:13;14.20;99.90
52103;DHT22;38101;53.126;6.878;2023-05-10T01:55:46;14.20;99.90
52103;DHT22;38101;53.126;6.878;2023-05-10T01:58:15;14.20;99.90
52103;DHT22;38101;53.126;6.878;2023-05-10T02:00:44;14.20;99.90
52103;DHT22;38101;53.126;6.878;2023-05-10T02:03:12;14.20;99.90
52103;DHT22;38101;53.126;6.878;2023-05-10T02:05:39;14.20;99.90
52103;DHT22;38101;53.126;6.878;2023-05-10T02:08:07;14.20;99.90
52103;DHT22;38101;53.126;6.878;2023-05-10T02:10:37;14.20;99.90
52103;DHT22;38101;53.126;6.878;2023-05-10T02:13:05;14.20;99.90
52103;DHT22;38101;53.126;6.878;2023-05-10T02:15:32;14.20;99.90
52103;DHT22;38101;53.126;6.878;2023-05-10T02:18:00;14.10;99.90
52103;DHT22;38101;53.126;6.878;2023-05-10T02:20:27;14.10;99.90
52103;DHT22;38101;53.126;6.878;2023-05-10T02:22:55;14.10;99.90
52103;DHT22;38101;53.126;6.878;2023-05-10T02:25:23;14.10;99.90
52103;DHT22;38101;53.126;6.878;2023-05-10T02:27:49;14.10;99.90
52103;DHT22;38101;53.126;6.878;2023-05-10T02:30:16;14.10;99.90
52103;DHT22;38101;53.126;6.878;2023-05-10T02:32:44;14.10;99.90
52103;DHT22;38101;53.126;6.878;2023-05-10T02:35:11;14.10;99.90
52103;DHT22;38101;53.126;6.878;2023-05-10T02:37:38;14.10;99.90
52103;DHT22;38101;53.126;6.878;2023-05-10T02:40:06;14.10;99.90
52103;DHT22;38101;53.126;6.878;2023-05-10T02:42:36;14.00;99.90
52103;DHT22;38101;53.126;6.878;2023-05-10T02:45:07;14.00;99.90
52103;DHT22;38101;53.126;6.878;2023-05-10T02:47:33;14.00;99.90
52103;DHT22;38101;53.126;6.878;2023-05-10T02:49:59;14.00;99.90
52103;DHT22;38101;53.126;6.878;2023-05-10T02:52:29;14.00;99.90
52103;DHT22;38101;53.126;6.878;2023-05-10T02:55:01;13.90;99.90
52103;DHT22;38101;53.126;6.878;2023-05-10T02:57:32;13.90;99.90
52103;DHT22;38101;53.126;6.878;2023-05-10T02:59:59;13.90;99.90
52103;DHT22;38101;53.126;6.878;2023-05-10T03:02:26;13.80;99.90
52103;DHT22;38101;53.126;6.878;2023-05-10T03:04:51;13.80;99.90
52103;DHT22;38101;53.126;6.878;2023-05-10T03:07:17;13.80;99.90
52103;DHT22;38101;53.126;6.878;2023-05-10T03:09:47;13.70;99.90
52103;DHT22;38101;53.126;6.878;2023-05-10T03:12:36;13.80;99.90
52103;DHT22;38101;53.126;6.878;2023-05-10T03:15:17;13.80;99.90
52103;DHT22;38101;53.126;6.878;2023-05-10T03:20:50;13.80;99.90
52103;DHT22;38101;53.126;6.878;2023-05-10T03:25:54;13.80;99.90
52103;DHT22;38101;53.126;6.878;2023-05-10T03:28:21;13.80;99.90
52103;DHT22;38101;53.126;6.878;2023-05-10T03:30:47;13.80;99.90
52103;DHT22;38101;53.126;6.878;2023-05-10T03:33:13;13.80;99.90
52103;DHT22;38101;53.126;6.878;2023-05-10T03:35:39;13.80;99.90
52103;DHT22;38101;53.126;6.878;2023-05-10T03:38:05;13.80;99.90
52103;DHT22;38101;53.126;6.878;2023-05-10T03:40:30;13.80;99.90
52103;DHT22;38101;53.126;6.878;2023-05-10T03:43:00;13.80;99.90
52103;DHT22;38101;53.126;6.878;2023-05-10T03:45:26;13.80;99.90
52103;DHT22;38101;53.126;6.878;2023-05-10T03:47:52;13.80;99.90
52103;DHT22;38101;53.126;6.878;2023-05-10T03:50:18;13.80;99.90
52103;DHT22;38101;53.126;6.878;2023-05-10T03:52:44;13.80;99.90
52103;DHT22;38101;53.126;6.878;2023-05-10T03:55:10;13.80;99.90
52103;DHT22;38101;53.126;6.878;2023-05-10T03:57:36;13.70;99.90
52103;DHT22;38101;53.126;6.878;2023-05-10T04:00:03;13.70;99.90
52103;DHT22;38101;53.126;6.878;2023-05-10T04:02:28;13.70;99.90
52103;DHT22;38101;53.126;6.878;2023-05-10T04:04:55;13.70;99.90
52103;DHT22;38101;53.126;6.878;2023-05-10T04:07:21;13.70;99.90
52103;DHT22;38101;53.126;6.878;2023-05-10T04:09:47;13.80;99.90
52103;DHT22;38101;53.126;6.878;2023-05-10T04:12:13;13.70;99.90
52103;DHT22;38101;53.126;6.878;2023-05-10T04:14:39;13.70;99.90
52103;DHT22;38101;53.126;6.878;2023-05-10T04:17:04;13.70;99.90
52103;DHT22;38101;53.126;6.878;2023-05-10T04:19:31;13.70;99.90
52103;DHT22;38101;53.126;6.878;2023-05-10T04:21:57;13.70;99.90
52103;DHT22;38101;53.126;6.878;2023-05-10T04:24:23;13.70;99.90
52103;DHT22;38101;53.126;6.878;2023-05-10T04:26:49;13.70;99.90
52103;DHT22;38101;53.126;6.878;2023-05-10T04:29:15;13.70;99.90
52103;DHT22;38101;53.126;6.878;2023-05-10T04:31:40;13.70;99.90
52103;DHT22;38101;53.126;6.878;2023-05-10T04:34:06;13.70;99.90
52103;DHT22;38101;53.126;6.878;2023-05-10T04:36:32;13.70;99.90
52103;DHT22;38101;53.126;6.878;2023-05-10T04:39:00;13.70;99.90
52103;DHT22;38101;53.126;6.878;2023-05-10T04:41:28;13.70;99.90
52103;DHT22;38101;53.126;6.878;2023-05-10T04:43:54;13.70;99.90
52103;DHT22;38101;53.126;6.878;2023-05-10T04:46:19;13.70;99.90
52103;DHT22;38101;53.126;6.878;2023-05-10T04:48:45;13.70;99.90
52103;DHT22;38101;53.126;6.878;2023-05-10T04:51:11;13.70;99.90
52103;DHT22;38101;53.126;6.878;2023-05-10T04:53:37;13.70;99.90
52103;DHT22;38101;53.126;6.878;2023-05-10T04:56:03;13.70;99.90
52103;DHT22;38101;53.126;6.878;2023-05-10T04:58:29;13.70;99.90
52103;DHT22;38101;53.126;6.878;2023-05-10T05:00:55;13.70;99.90
52103;DHT22;38101;53.126;6.878;2023-05-10T05:03:21;13.70;99.90
52103;DHT22;38101;53.126;6.878;2023-05-10T05:05:47;13.60;99.90
52103;DHT22;38101;53.126;6.878;2023-05-10T05:08:13;13.60;99.90
52103;DHT22;38101;53.126;6.878;2023-05-10T05:10:39;13.60;99.90
52103;DHT22;38101;53.126;6.878;2023-05-10T05:13:04;13.60;99.90
52103;DHT22;38101;53.126;6.878;2023-05-10T05:15:31;13.50;99.90
52103;DHT22;38101;53.126;6.878;2023-05-10T05:17:56;13.60;99.90
52103;DHT22;38101;53.126;6.878;2023-05-10T05:20:22;13.50;99.90
52103;DHT22;38101;53.126;6.878;2023-05-10T05:22:48;13.50;99.90
52103;DHT22;38101;53.126;6.878;2023-05-10T05:25:13;13.50;99.90
52103;DHT22;38101;53.126;6.878;2023-05-10T05:27:40;13.50;99.90
52103;DHT22;38101;53.126;6.878;2023-05-10T05:30:07;13.50;99.90
52103;DHT22;38101;53.126;6.878;2023-05-10T05:32:33;13.50;99.90
52103;DHT22;38101;53.126;6.878;2023-05-10T05:34:58;13.50;99.90
52103;DHT22;38101;53.126;6.878;2023-05-10T05:37:24;13.50;99.90
52103;DHT22;38101;53.126;6.878;2023-05-10T05:39:50;13.50;99.90
52103;DHT22;38101;53.126;6.878;2023-05-10T05:42:16;13.40;99.90
52103;DHT22;38101;53.126;6.878;2023-05-10T05:44:44;13.30;99.90
52103;DHT22;38101;53.126;6.878;2023-05-10T05:47:10;13.40;99.90
52103;DHT22;38101;53.126;6.878;2023-05-10T05:49:36;13.40;99.90
52103;DHT22;38101;53.126;6.878;2023-05-10T05:52:03;13.30;99.90
52103;DHT22;38101;53.126;6.878;2023-05-10T05:54:30;13.30;99.90
52103;DHT22;38101;53.126;6.878;2023-05-10T05:56:57;13.30;99.90
52103;DHT22;38101;53.126;6.878;2023-05-10T05:59:23;13.20;99.90
52103;DHT22;38101;53.126;6.878;2023-05-10T06:01:49;13.20;99.90
52103;DHT22;38101;53.126;6.878;2023-05-10T06:04:15;13.20;99.90
52103;DHT22;38101;53.126;6.878;2023-05-10T06:06:41;13.20;99.90
52103;DHT22;38101;53.126;6.878;2023-05-10T06:09:08;13.20;99.90
52103;DHT22;38101;53.126;6.878;2023-05-10T06:11:34;13.20;99.90
52103;DHT22;38101;53.126;6.878;2023-05-10T06:14:01;13.10;99.90
52103;DHT22;38101;53.126;6.878;2023-05-10T06:16:27;13.10;99.90
52103;DHT22;38101;53.126;6.878;2023-05-10T06:18:53;13.10;99.90
52103;DHT22;38101;53.126;6.878;2023-05-10T06:21:19;13.10;99.90
52103;DHT22;38101;53.126;6.878;2023-05-10T06:23:45;13.00;99.90
52103;DHT22;38101;53.126;6.878;2023-05-10T06:26:11;13.00;99.90
52103;DHT22;38101;53.126;6.878;2023-05-10T06:28:37;13.00;99.90
52103;DHT22;38101;53.126;6.878;2023-05-10T06:31:04;13.00;99.90
52103;DHT22;38101;53.126;6.878;2023-05-10T06:33:30;13.00;99.90
52103;DHT22;38101;53.126;6.878;2023-05-10T06:35:56;13.00;99.90
52103;DHT22;38101;53.126;6.878;2023-05-10T06:38:22;13.00;99.90
52103;DHT22;38101;53.126;6.878;2023-05-10T06:40:48;13.00;99.90
52103;DHT22;38101;53.126;6.878;2023-05-10T06:43:14;13.00;99.90
52103;DHT22;38101;53.126;6.878;2023-05-10T06:45:41;13.00;99.90
52103;DHT22;38101;53.126;6.878;2023-05-10T06:48:07;13.10;99.90
52103;DHT22;38101;53.126;6.878;2023-05-10T06:50:33;13.10;99.90
52103;DHT22;38101;53.126;6.878;2023-05-10T06:52:59;13.10;99.90
52103;DHT22;38101;53.126;6.878;2023-05-10T06:55:25;13.10;99.90
52103;DHT22;38101;53.126;6.878;2023-05-10T06:57:52;13.00;99.90
52103;DHT22;38101;53.126;6.878;2023-05-10T07:00:19;13.10;99.90
52103;DHT22;38101;53.126;6.878;2023-05-10T07:02:46;13.10;99.90
52103;DHT22;38101;53.126;6.878;2023-05-10T07:05:12;13.10;99.90
52103;DHT22;38101;53.126;6.878;2023-05-10T07:07:39;13.00;99.90
52103;DHT22;38101;53.126;6.878;2023-05-10T07:10:05;13.10;99.90
52103;DHT22;38101;53.126;6.878;2023-05-10T07:12:31;13.10;99.90
52103;DHT22;38101;53.126;6.878;2023-05-10T07:14:57;13.00;99.90
52103;DHT22;38101;53.126;6.878;2023-05-10T07:17:23;13.00;99.90
52103;DHT22;38101;53.126;6.878;2023-05-10T07:19:49;13.00;99.90
52103;DHT22;38101;53.126;6.878;2023-05-10T07:22:15;13.00;99.90
52103;DHT22;38101;53.126;6.878;2023-05-10T07:24:42;13.00;99.90
52103;DHT22;38101;53.126;6.878;2023-05-10T07:27:08;13.00;99.90
52103;DHT22;38101;53.126;6.878;2023-05-10T07:29:35;13.00;99.90
52103;DHT22;38101;53.126;6.878;2023-05-10T07:32:01;12.90;99.90
52103;DHT22;38101;53.126;6.878;2023-05-10T07:34:27;13.00;99.90
52103;DHT22;38101;53.126;6.878;2023-05-10T07:36:53;13.00;99.90
52103;DHT22;38101;53.126;6.878;2023-05-10T07:39:19;12.90;99.90
52103;DHT22;38101;53.126;6.878;2023-05-10T07:41:48;12.90;99.90
52103;DHT22;38101;53.126;6.878;2023-05-10T07:44:13;12.90;99.90
52103;DHT22;38101;53.126;6.878;2023-05-10T07:46:39;12.90;99.90
52103;DHT22;38101;53.126;6.878;2023-05-10T07:49:05;12.90;99.90
52103;DHT22;38101;53.126;6.878;2023-05-10T07:51:31;12.90;99.90
52103;DHT22;38101;53.126;6.878;2023-05-10T07:53:57;12.90;99.90
52103;DHT22;38101;53.126;6.878;2023-05-10T07:56:27;12.90;99.90
52103;DHT22;38101;53.126;6.878;2023-05-10T07:59:03;12.90;99.90
52103;DHT22;38101;53.126;6.878;2023-05-10T08:01:32;12.90;99.90
52103;DHT22;38101;53.126;6.878;2023-05-10T08:03:58;12.90;99.90
52103;DHT22;38101;53.126;6.878;2023-05-10T08:06:23;12.90;99.90
52103;DHT22;38101;53.126;6.878;2023-05-10T08:08:51;12.90;99.90
52103;DHT22;38101;53.126;6.878;2023-05-10T08:11:19;13.00;99.90
52103;DHT22;38101;53.126;6.878;2023-05-10T08:13:46;13.00;99.90
52103;DHT22;38101;53.126;6.878;2023-05-10T08:16:12;13.00;99.90
52103;DHT22;38101;53.126;6.878;2023-05-10T08:18:39;12.90;99.90
52103;DHT22;38101;53.126;6.878;2023-05-10T08:21:05;13.00;99.90
52103;DHT22;38101;53.126;6.878;2023-05-10T08:23:31;13.00;99.90
52103;DHT22;38101;53.126;6.878;2023-05-10T08:25:56;13.00;99.90
52103;DHT22;38101;53.126;6.878;2023-05-10T08:28:22;13.10;99.90
52103;DHT22;38101;53.126;6.878;2023-05-10T08:30:49;13.00;99.90
52103;DHT22;38101;53.126;6.878;2023-05-10T08:33:15;13.00;99.90
52103;DHT22;38101;53.126;6.878;2023-05-10T08:35:41;13.10;99.90
52103;DHT22;38101;53.126;6.878;2023-05-10T08:38:07;13.00;99.90
52103;DHT22;38101;53.126;6.878;2023-05-10T08:40:32;13.10;99.90
52103;DHT22;38101;53.126;6.878;2023-05-10T08:43:07;13.10;99.90
52103;DHT22;38101;53.126;6.878;2023-05-10T08:45:41;13.10;99.90
52103;DHT22;38101;53.126;6.878;2023-05-10T08:48:09;13.00;99.90
52103;DHT22;38101;53.126;6.878;2023-05-10T08:50:40;13.10;99.90
52103;DHT22;38101;53.126;6.878;2023-05-10T08:53:13;13.10;99.90
52103;DHT22;38101;53.126;6.878;2023-05-10T08:55:40;13.10;99.90
52103;DHT22;38101;53.126;6.878;2023-05-10T08:58:07;13.10;99.90
52103;DHT22;38101;53.126;6.878;2023-05-10T09:00:34;13.10;99.90
52103;DHT22;38101;53.126;6.878;2023-05-10T09:03:01;13.10;99.90
52103;DHT22;38101;53.126;6.878;2023-05-10T09:05:27;13.10;99.90
52103;DHT22;38101;53.126;6.878;2023-05-10T09:07:53;13.10;99.90
52103;DHT22;38101;53.126;6.878;2023-05-10T09:10:19;13.10;99.90
52103;DHT22;38101;53.126;6.878;2023-05-10T09:12:45;13.10;99.90
52103;DHT22;38101;53.126;6.878;2023-05-10T09:15:12;13.10;99.90
52103;DHT22;38101;53.126;6.878;2023-05-10T09:17:40;13.10;99.90
52103;DHT22;38101;53.126;6.878;2023-05-10T09:20:06;13.20;99.90
52103;DHT22;38101;53.126;6.878;2023-05-10T09:22:33;13.20;99.90
52103;DHT22;38101;53.126;6.878;2023-05-10T09:27:30;13.20;99.90
52103;DHT22;38101;53.126;6.878;2023-05-10T09:29:56;13.20;99.90
52103;DHT22;38101;53.126;6.878;2023-05-10T09:32:37;13.10;99.90
52103;DHT22;38101;53.126;6.878;2023-05-10T09:35:11;13.20;99.90
52103;DHT22;38101;53.126;6.878;2023-05-10T09:37:40;13.20;99.90
52103;DHT22;38101;53.126;6.878;2023-05-10T09:40:14;13.20;99.90
52103;DHT22;38101;53.126;6.878;2023-05-10T09:42:52;13.20;99.90
52103;DHT22;38101;53.126;6.878;2023-05-10T09:45:18;13.20;99.90
52103;DHT22;38101;53.126;6.878;2023-05-10T09:47:45;13.20;99.90
52103;DHT22;38101;53.126;6.878;2023-05-10T09:50:11;13.30;99.90
52103;DHT22;38101;53.126;6.878;2023-05-10T09:53:01;13.30;99.90
52103;DHT22;38101;53.126;6.878;2023-05-10T09:55:44;13.30;99.90
52103;DHT22;38101;53.126;6.878;2023-05-10T09:58:11;13.40;99.90
52103;DHT22;38101;53.126;6.878;2023-05-10T10:00:39;13.30;99.90
52103;DHT22;38101;53.126;6.878;2023-05-10T10:03:05;13.40;99.90
52103;DHT22;38101;53.126;6.878;2023-05-10T10:05:33;13.40;99.90
52103;DHT22;38101;53.126;6.878;2023-05-10T10:08:02;13.40;99.90
52103;DHT22;38101;53.126;6.878;2023-05-10T10:10:29;13.40;99.90
52103;DHT22;38101;53.126;6.878;2023-05-10T10:12:56;13.50;99.90
52103;DHT22;38101;53.126;6.878;2023-05-10T10:15:22;13.60;99.90
52103;DHT22;38101;53.126;6.878;2023-05-10T10:17:49;13.60;99.90
52103;DHT22;38101;53.126;6.878;2023-05-10T10:20:16;13.70;99.90
52103;DHT22;38101;53.126;6.878;2023-05-10T10:22:42;13.70;99.90
52103;DHT22;38101;53.126;6.878;2023-05-10T10:25:10;13.80;99.90
52103;DHT22;38101;53.126;6.878;2023-05-10T10:27:55;13.80;99.90
52103;DHT22;38101;53.126;6.878;2023-05-10T10:30:42;13.90;99.90
52103;DHT22;38101;53.126;6.878;2023-05-10T10:36:40;14.00;99.90
52103;DHT22;38101;53.126;6.878;2023-05-10T10:39:09;14.00;99.90
52103;DHT22;38101;53.126;6.878;2023-05-10T10:41:37;14.00;99.90
52103;DHT22;38101;53.126;6.878;2023-05-10T10:47:05;14.10;99.90
52103;DHT22;38101;53.126;6.878;2023-05-10T10:52:43;14.20;99.90
52103;DHT22;38101;53.126;6.878;2023-05-10T10:55:20;14.20;99.90
52103;DHT22;38101;53.126;6.878;2023-05-10T10:57:54;14.20;99.90
52103;DHT22;38101;53.126;6.878;2023-05-10T11:00:32;14.20;99.90
52103;DHT22;38101;53.126;6.878;2023-05-10T11:03:04;14.10;99.90
52103;DHT22;38101;53.126;6.878;2023-05-10T11:08:28;14.10;99.90
52103;DHT22;38101;53.126;6.878;2023-05-10T11:13:39;14.20;99.90
52103;DHT22;38101;53.126;6.878;2023-05-10T11:16:25;14.30;99.90
52103;DHT22;38101;53.126;6.878;2023-05-10T11:19:09;14.50;99.90
52103;DHT22;38101;53.126;6.878;2023-05-10T11:24:17;14.60;99.90
52103;DHT22;38101;53.126;6.878;2023-05-10T11:26:44;14.60;99.90
52103;DHT22;38101;53.126;6.878;2023-05-10T11:29:09;14.60;99.90
52103;DHT22;38101;53.126;6.878;2023-05-10T11:31:42;14.60;99.90
52103;DHT22;38101;53.126;6.878;2023-05-10T11:34:09;14.60;99.90
52103;DHT22;38101;53.126;6.878;2023-05-10T11:36:36;14.60;99.90
52103;DHT22;38101;53.126;6.878;2023-05-10T11:39:02;14.50;99.90
52103;DHT22;38101;53.126;6.878;2023-05-10T11:41:29;14.50;99.90
52103;DHT22;38101;53.126;6.878;2023-05-10T11:43:56;14.50;99.90
52103;DHT22;38101;53.126;6.878;2023-05-10T11:46:24;14.40;99.90
52103;DHT22;38101;53.126;6.878;2023-05-10T11:48:52;14.40;99.90
52103;DHT22;38101;53.126;6.878;2023-05-10T11:51:23;14.30;99.90
52103;DHT22;38101;53.126;6.878;2023-05-10T11:53:50;14.30;99.90
52103;DHT22;38101;53.126;6.878;2023-05-10T11:56:17;14.30;99.90
52103;DHT22;38101;53.126;6.878;2023-05-10T11:58:43;14.30;99.90
52103;DHT22;38101;53.126;6.878;2023-05-10T12:01:09;14.30;99.90
52103;DHT22;38101;53.126;6.878;2023-05-10T12:03:36;14.30;99.90
52103;DHT22;38101;53.126;6.878;2023-05-10T12:06:03;14.40;99.90
52103;DHT22;38101;53.126;6.878;2023-05-10T12:08:30;14.40;99.90
52103;DHT22;38101;53.126;6.878;2023-05-10T12:11:09;14.40;99.90
52103;DHT22;38101;53.126;6.878;2023-05-10T12:13:40;14.40;99.90
52103;DHT22;38101;53.126;6.878;2023-05-10T12:16:17;14.50;99.90
52103;DHT22;38101;53.126;6.878;2023-05-10T12:18:43;14.50;99.90
52103;DHT22;38101;53.126;6.878;2023-05-10T12:21:10;14.50;99.90
52103;DHT22;38101;53.126;6.878;2023-05-10T12:23:37;14.50;99.90
52103;DHT22;38101;53.126;6.878;2023-05-10T12:26:03;14.50;99.90
52103;DHT22;38101;53.126;6.878;2023-05-10T12:28:30;14.50;99.90
52103;DHT22;38101;53.126;6.878;2023-05-10T12:30:59;14.50;99.90
52103;DHT22;38101;53.126;6.878;2023-05-10T12:33:25;14.50;99.90
52103;DHT22;38101;53.126;6.878;2023-05-10T12:35:54;14.50;99.90
52103;DHT22;38101;53.126;6.878;2023-05-10T12:38:28;14.50;99.90
52103;DHT22;38101;53.126;6.878;2023-05-10T12:41:02;14.50;99.90
52103;DHT22;38101;53.126;6.878;2023-05-10T12:43:29;14.50;99.90
52103;DHT22;38101;53.126;6.878;2023-05-10T12:45:55;14.50;99.90
52103;DHT22;38101;53.126;6.878;2023-05-10T12:48:21;14.50;99.90
52103;DHT22;38101;53.126;6.878;2023-05-10T12:50:47;14.50;99.90
52103;DHT22;38101;53.126;6.878;2023-05-10T12:53:14;14.50;99.90
52103;DHT22;38101;53.126;6.878;2023-05-10T12:55:41;14.50;99.90
52103;DHT22;38101;53.126;6.878;2023-05-10T12:58:07;14.40;99.90
52103;DHT22;38101;53.126;6.878;2023-05-10T13:00:33;14.50;99.90
52103;DHT22;38101;53.126;6.878;2023-05-10T13:02:59;14.50;99.90
52103;DHT22;38101;53.126;6.878;2023-05-10T13:05:24;14.50;99.90
52103;DHT22;38101;53.126;6.878;2023-05-10T13:07:50;14.50;99.90
52103;DHT22;38101;53.126;6.878;2023-05-10T13:10:16;14.50;99.90
52103;DHT22;38101;53.126;6.878;2023-05-10T13:12:42;14.60;99.90
52103;DHT22;38101;53.126;6.878;2023-05-10T13:15:08;14.60;99.90
52103;DHT22;38101;53.126;6.878;2023-05-10T13:17:33;14.60;99.90
52103;DHT22;38101;53.126;6.878;2023-05-10T13:19:59;14.70;99.90
52103;DHT22;38101;53.126;6.878;2023-05-10T13:22:25;14.80;99.90
52103;DHT22;38101;53.126;6.878;2023-05-10T13:24:50;14.90;99.90
52103;DHT22;38101;53.126;6.878;2023-05-10T13:27:16;14.90;99.90
52103;DHT22;38101;53.126;6.878;2023-05-10T13:29:42;14.90;99.90
52103;DHT22;38101;53.126;6.878;2023-05-10T13:32:08;15.00;99.90
52103;DHT22;38101;53.126;6.878;2023-05-10T13:34:33;15.00;99.90
52103;DHT22;38101;53.126;6.878;2023-05-10T13:37:01;15.10;99.90
52103;DHT22;38101;53.126;6.878;2023-05-10T13:39:27;15.10;99.90
52103;DHT22;38101;53.126;6.878;2023-05-10T13:41:52;15.10;99.90
52103;DHT22;38101;53.126;6.878;2023-05-10T13:44:19;15.20;99.90
52103;DHT22;38101;53.126;6.878;2023-05-10T13:46:45;15.20;99.90
52103;DHT22;38101;53.126;6.878;2023-05-10T13:49:11;15.20;99.90
52103;DHT22;38101;53.126;6.878;2023-05-10T13:51:37;15.20;99.90
52103;DHT22;38101;53.126;6.878;2023-05-10T13:54:03;15.20;99.90
52103;DHT22;38101;53.126;6.878;2023-05-10T13:56:29;15.30;99.90
52103;DHT22;38101;53.126;6.878;2023-05-10T13:58:56;15.30;99.90
52103;DHT22;38101;53.126;6.878;2023-05-10T14:01:23;15.30;99.90
52103;DHT22;38101;53.126;6.878;2023-05-10T14:03:48;15.30;99.90
52103;DHT22;38101;53.126;6.878;2023-05-10T14:06:14;15.30;99.90
52103;DHT22;38101;53.126;6.878;2023-05-10T14:08:40;15.30;99.90
52103;DHT22;38101;53.126;6.878;2023-05-10T14:11:06;15.30;99.90
52103;DHT22;38101;53.126;6.878;2023-05-10T14:13:32;15.30;99.90
52103;DHT22;38101;53.126;6.878;2023-05-10T14:15:58;15.30;99.90
52103;DHT22;38101;53.126;6.878;2023-05-10T14:18:26;15.30;99.90
52103;DHT22;38101;53.126;6.878;2023-05-10T14:20:52;15.30;99.90
52103;DHT22;38101;53.126;6.878;2023-05-10T14:23:18;15.30;99.90
52103;DHT22;38101;53.126;6.878;2023-05-10T14:25:49;15.30;99.90
52103;DHT22;38101;53.126;6.878;2023-05-10T14:28:16;15.30;99.90
52103;DHT22;38101;53.126;6.878;2023-05-10T14:30:43;15.30;99.90
52103;DHT22;38101;53.126;6.878;2023-05-10T14:33:09;15.30;99.90
52103;DHT22;38101;53.126;6.878;2023-05-10T14:35:35;15.20;99.90
52103;DHT22;38101;53.126;6.878;2023-05-10T14:38:02;15.20;99.90
52103;DHT22;38101;53.126;6.878;2023-05-10T14:40:29;15.20;99.90
52103;DHT22;38101;53.126;6.878;2023-05-10T14:42:55;15.20;99.90
52103;DHT22;38101;53.126;6.878;2023-05-10T14:45:22;15.10;99.90
52103;DHT22;38101;53.126;6.878;2023-05-10T14:47:49;15.10;99.90
52103;DHT22;38101;53.126;6.878;2023-05-10T14:50:15;15.10;99.90
52103;DHT22;38101;53.126;6.878;2023-05-10T14:52:42;15.20;99.90
52103;DHT22;38101;53.126;6.878;2023-05-10T14:55:08;15.10;99.90
52103;DHT22;38101;53.126;6.878;2023-05-10T14:57:34;15.10;99.90
52103;DHT22;38101;53.126;6.878;2023-05-10T15:00:00;15.10;99.90
52103;DHT22;38101;53.126;6.878;2023-05-10T15:02:26;15.10;99.90
52103;DHT22;38101;53.126;6.878;2023-05-10T15:04:52;15.10;99.90
52103;DHT22;38101;53.126;6.878;2023-05-10T15:07:17;15.00;99.90
52103;DHT22;38101;53.126;6.878;2023-05-10T15:09:44;15.10;99.90
52103;DHT22;38101;53.126;6.878;2023-05-10T15:12:11;15.10;99.90
52103;DHT22;38101;53.126;6.878;2023-05-10T15:14:36;15.10;99.90
52103;DHT22;38101;53.126;6.878;2023-05-10T15:17:06;15.10;99.90
52103;DHT22;38101;53.126;6.878;2023-05-10T15:19:32;15.10;99.90
52103;DHT22;38101;53.126;6.878;2023-05-10T15:21:59;15.20;99.90
52103;DHT22;38101;53.126;6.878;2023-05-10T15:24:25;15.10;99.90
52103;DHT22;38101;53.126;6.878;2023-05-10T15:26:51;15.20;99.90
52103;DHT22;38101;53.126;6.878;2023-05-10T15:29:16;15.20;99.90
52103;DHT22;38101;53.126;6.878;2023-05-10T15:31:49;15.20;99.90
52103;DHT22;38101;53.126;6.878;2023-05-10T15:34:15;15.20;99.90
52103;DHT22;38101;53.126;6.878;2023-05-10T15:36:41;15.20;99.90
52103;DHT22;38101;53.126;6.878;2023-05-10T15:39:07;15.30;99.90
52103;DHT22;38101;53.126;6.878;2023-05-10T15:41:34;15.30;99.90
52103;DHT22;38101;53.126;6.878;2023-05-10T15:44:00;15.30;99.90
52103;DHT22;38101;53.126;6.878;2023-05-10T15:46:27;15.30;99.90
52103;DHT22;38101;53.126;6.878;2023-05-10T15:48:53;15.40;99.90
52103;DHT22;38101;53.126;6.878;2023-05-10T15:51:18;15.40;99.90
52103;DHT22;38101;53.126;6.878;2023-05-10T15:53:45;15.40;99.90
52103;DHT22;38101;53.126;6.878;2023-05-10T15:56:11;15.40;99.90
52103;DHT22;38101;53.126;6.878;2023-05-10T15:58:40;15.40;99.90
52103;DHT22;38101;53.126;6.878;2023-05-10T16:01:06;15.50;99.90
52103;DHT22;38101;53.126;6.878;2023-05-10T16:03:33;15.50;99.90
52103;DHT22;38101;53.126;6.878;2023-05-10T16:05:59;15.50;99.90
52103;DHT22;38101;53.126;6.878;2023-05-10T16:08:26;15.60;99.90
52103;DHT22;38101;53.126;6.878;2023-05-10T16:10:52;15.60;99.90